Portada
METAR-TAF:

METAR-TAF

Aeroports :

Imphal, Índia

latitud: 24-45-36N, longitud: 93-53-48E, altitud: 774 m

Observació

L'informe es va fer fa 21 minuts, a les 03:30 UTC
Vent 2 kt del Est/Nord-Est
Temperatura 26°C
Humitat 74%
Pressió 1018 hPa
Visibilitat: 4000 m
Escasses núvols a una alçada de 1000 ft
calitja

METAR: VEIM 140330Z 06002KT 4000 HZ FEW010 26/21 Q1018 NOSIG

Hora: 09:21 (03:51 UTC)

Pronòstic

L'informe es va fer fa 1 hora i 51 minuts, a les 02:00 UTC
Pronòstic vàlid del 14 a les 03 UTC al 14 a les 12 UTC
Vent 5 kt del Est
Visibilitat: 5000 m
Escasses núvols a una alçada de 1800 ft
boirina, calitja
Evolucionant progressivament
l' 14 a les 09 UTC al 14 a les 11 UTC
Visibilitat: 5000 m
Escasses núvols a una alçada de 2000 ft
Núvols disperses a una alçada de 10000 ft
calitja

TAF: VEIM 140200Z 1403/1412 10005KT 5000 BR HZ FEW018 BECMG 1409/1411 5000 HZ FEW020 SCT100

Observacions i pronòstics meteorològics de més de 4000 aeroports (METAR i TAF).

Les estacions disponibles són els punts grocs i vermells al mapa.

Posi el ratolí al punt desitjat per veure el nom de l'estació.

Feu clic per veure les observacions i els pronòstics meteorològics.

Per canviar el mapa: feu clic els botons verds amb una creu de color negre per apropar; al botó verd amb un guió per allunyar la imatge; o en les fletxes verdes per a mapes adjacents.


METAR-TAF: